sensor_id;sensor_type;location;lat;lon;timestamp;P1;durP1;ratioP1;P2;durP2;ratioP2
31306;SDS011;17935;51.120;13.132;2022-09-09T00:02:21;4.78;;;2.28;;
31306;SDS011;17935;51.120;13.132;2022-09-09T00:15:21;5.07;;;2.63;;
31306;SDS011;17935;51.120;13.132;2022-09-09T00:20:16;5.53;;;2.25;;
31306;SDS011;17935;51.120;13.132;2022-09-09T00:25:37;4.70;;;1.98;;
31306;SDS011;17935;51.120;13.132;2022-09-09T00:28:19;4.07;;;1.70;;
31306;SDS011;17935;51.120;13.132;2022-09-09T00:30:45;3.22;;;1.95;;
31306;SDS011;17935;51.120;13.132;2022-09-09T00:33:16;3.45;;;1.98;;
31306;SDS011;17935;51.120;13.132;2022-09-09T00:38:19;4.90;;;2.53;;
31306;SDS011;17935;51.120;13.132;2022-09-09T00:40:53;7.60;;;2.15;;
31306;SDS011;17935;51.120;13.132;2022-09-09T00:43:24;4.93;;;2.13;;
31306;SDS011;17935;51.120;13.132;2022-09-09T00:48:46;9.10;;;2.10;;
31306;SDS011;17935;51.120;13.132;2022-09-09T00:51:17;3.03;;;1.77;;
31306;SDS011;17935;51.120;13.132;2022-09-09T00:56:20;3.05;;;1.70;;
31306;SDS011;17935;51.120;13.132;2022-09-09T01:01:21;4.15;;;2.20;;
31306;SDS011;17935;51.120;13.132;2022-09-09T01:11:22;5.15;;;2.13;;
31306;SDS011;17935;51.120;13.132;2022-09-09T01:13:52;1.85;;;1.73;;
31306;SDS011;17935;51.120;13.132;2022-09-09T01:16:18;6.05;;;2.15;;
31306;SDS011;17935;51.120;13.132;2022-09-09T01:18:45;3.33;;;2.03;;
31306;SDS011;17935;51.120;13.132;2022-09-09T01:26:35;2.67;;;2.00;;
31306;SDS011;17935;51.120;13.132;2022-09-09T01:29:02;3.75;;;1.80;;
31306;SDS011;17935;51.120;13.132;2022-09-09T01:31:34;3.53;;;1.98;;
31306;SDS011;17935;51.120;13.132;2022-09-09T01:34:02;6.70;;;3.13;;
31306;SDS011;17935;51.120;13.132;2022-09-09T01:36:31;1.83;;;1.67;;
31306;SDS011;17935;51.120;13.132;2022-09-09T01:38:58;7.15;;;1.77;;
31306;SDS011;17935;51.120;13.132;2022-09-09T01:41:24;8.68;;;2.22;;
31306;SDS011;17935;51.120;13.132;2022-09-09T01:43:50;9.07;;;2.00;;
31306;SDS011;17935;51.120;13.132;2022-09-09T01:46:17;4.65;;;2.33;;
31306;SDS011;17935;51.120;13.132;2022-09-09T01:48:43;7.60;;;2.17;;
31306;SDS011;17935;51.120;13.132;2022-09-09T01:51:11;4.93;;;1.90;;
31306;SDS011;17935;51.120;13.132;2022-09-09T01:53:37;4.43;;;1.63;;
31306;SDS011;17935;51.120;13.132;2022-09-09T02:03:51;4.95;;;2.00;;
31306;SDS011;17935;51.120;13.132;2022-09-09T02:08:47;6.30;;;1.65;;
31306;SDS011;17935;51.120;13.132;2022-09-09T02:11:17;3.45;;;1.80;;
31306;SDS011;17935;51.120;13.132;2022-09-09T02:13:44;3.95;;;1.75;;
31306;SDS011;17935;51.120;13.132;2022-09-09T02:19:01;5.32;;;1.85;;
31306;SDS011;17935;51.120;13.132;2022-09-09T02:21:28;4.53;;;1.65;;
31306;SDS011;17935;51.120;13.132;2022-09-09T02:23:56;4.80;;;1.80;;
31306;SDS011;17935;51.120;13.132;2022-09-09T02:26:24;6.20;;;1.90;;
31306;SDS011;17935;51.120;13.132;2022-09-09T02:28:52;2.60;;;1.90;;
31306;SDS011;17935;51.120;13.132;2022-09-09T02:31:20;4.80;;;2.00;;
31306;SDS011;17935;51.120;13.132;2022-09-09T02:34:05;6.43;;;1.92;;
31306;SDS011;17935;51.120;13.132;2022-09-09T02:36:35;5.90;;;1.90;;
31306;SDS011;17935;51.120;13.132;2022-09-09T02:39:03;2.15;;;1.80;;
31306;SDS011;17935;51.120;13.132;2022-09-09T02:41:31;9.48;;;1.95;;
31306;SDS011;17935;51.120;13.132;2022-09-09T02:43:58;2.17;;;1.63;;
31306;SDS011;17935;51.120;13.132;2022-09-09T02:49:13;3.35;;;1.80;;
31306;SDS011;17935;51.120;13.132;2022-09-09T02:51:58;2.70;;;1.90;;
31306;SDS011;17935;51.120;13.132;2022-09-09T02:54:37;5.82;;;2.15;;
31306;SDS011;17935;51.120;13.132;2022-09-09T02:57:06;5.70;;;2.17;;
31306;SDS011;17935;51.120;13.132;2022-09-09T02:59:35;3.70;;;1.60;;
31306;SDS011;17935;51.120;13.132;2022-09-09T03:02:01;6.78;;;2.03;;
31306;SDS011;17935;51.120;13.132;2022-09-09T03:04:27;5.13;;;1.85;;
31306;SDS011;17935;51.120;13.132;2022-09-09T03:06:54;4.95;;;1.77;;
31306;SDS011;17935;51.120;13.132;2022-09-09T03:09:20;2.35;;;1.50;;
31306;SDS011;17935;51.120;13.132;2022-09-09T03:11:46;4.60;;;1.80;;
31306;SDS011;17935;51.120;13.132;2022-09-09T03:14:13;5.03;;;1.80;;
31306;SDS011;17935;51.120;13.132;2022-09-09T03:16:39;2.47;;;1.50;;
31306;SDS011;17935;51.120;13.132;2022-09-09T03:19:05;2.63;;;1.95;;
31306;SDS011;17935;51.120;13.132;2022-09-09T03:21:31;4.28;;;1.70;;
31306;SDS011;17935;51.120;13.132;2022-09-09T03:23:57;3.58;;;1.92;;
31306;SDS011;17935;51.120;13.132;2022-09-09T03:26:23;8.23;;;1.90;;
31306;SDS011;17935;51.120;13.132;2022-09-09T03:28:49;3.85;;;1.90;;
31306;SDS011;17935;51.120;13.132;2022-09-09T03:31:16;5.80;;;1.98;;
31306;SDS011;17935;51.120;13.132;2022-09-09T03:33:43;3.47;;;1.70;;
31306;SDS011;17935;51.120;13.132;2022-09-09T03:36:09;11.98;;;2.28;;
31306;SDS011;17935;51.120;13.132;2022-09-09T03:38:35;3.80;;;1.90;;
31306;SDS011;17935;51.120;13.132;2022-09-09T03:41:01;4.57;;;2.13;;
31306;SDS011;17935;51.120;13.132;2022-09-09T03:43:28;3.33;;;1.80;;
31306;SDS011;17935;51.120;13.132;2022-09-09T03:45:54;7.25;;;2.83;;
31306;SDS011;17935;51.120;13.132;2022-09-09T03:48:22;3.78;;;2.20;;
31306;SDS011;17935;51.120;13.132;2022-09-09T03:50:48;3.25;;;2.33;;
31306;SDS011;17935;51.120;13.132;2022-09-09T03:53:15;7.10;;;2.50;;
31306;SDS011;17935;51.120;13.132;2022-09-09T03:55:48;3.25;;;2.63;;
31306;SDS011;17935;51.120;13.132;2022-09-09T04:00:40;5.55;;;2.47;;
31306;SDS011;17935;51.120;13.132;2022-09-09T04:03:10;4.72;;;2.92;;
31306;SDS011;17935;51.120;13.132;2022-09-09T04:05:36;3.42;;;2.75;;
31306;SDS011;17935;51.120;13.132;2022-09-09T04:08:04;5.70;;;2.85;;
31306;SDS011;17935;51.120;13.132;2022-09-09T04:10:30;6.57;;;3.42;;
31306;SDS011;17935;51.120;13.132;2022-09-09T04:12:56;5.60;;;2.60;;
31306;SDS011;17935;51.120;13.132;2022-09-09T04:15:22;4.63;;;2.80;;
31306;SDS011;17935;51.120;13.132;2022-09-09T04:17:48;5.03;;;2.88;;
31306;SDS011;17935;51.120;13.132;2022-09-09T04:20:14;7.57;;;3.03;;
31306;SDS011;17935;51.120;13.132;2022-09-09T04:22:40;3.47;;;2.60;;
31306;SDS011;17935;51.120;13.132;2022-09-09T04:25:06;8.23;;;2.47;;
31306;SDS011;17935;51.120;13.132;2022-09-09T04:27:32;4.10;;;2.92;;
31306;SDS011;17935;51.120;13.132;2022-09-09T04:29:58;4.30;;;2.30;;
31306;SDS011;17935;51.120;13.132;2022-09-09T04:32:24;5.53;;;2.67;;
31306;SDS011;17935;51.120;13.132;2022-09-09T04:34:52;6.43;;;3.17;;
31306;SDS011;17935;51.120;13.132;2022-09-09T04:37:18;6.22;;;2.45;;
31306;SDS011;17935;51.120;13.132;2022-09-09T04:39:44;6.07;;;3.58;;
31306;SDS011;17935;51.120;13.132;2022-09-09T04:42:10;5.10;;;2.72;;
31306;SDS011;17935;51.120;13.132;2022-09-09T04:44:36;8.43;;;3.90;;
31306;SDS011;17935;51.120;13.132;2022-09-09T04:47:02;4.45;;;2.08;;
31306;SDS011;17935;51.120;13.132;2022-09-09T04:49:28;2.58;;;2.30;;
31306;SDS011;17935;51.120;13.132;2022-09-09T04:51:55;6.32;;;2.35;;
31306;SDS011;17935;51.120;13.132;2022-09-09T04:54:21;7.28;;;2.03;;
31306;SDS011;17935;51.120;13.132;2022-09-09T04:56:49;6.47;;;1.80;;
31306;SDS011;17935;51.120;13.132;2022-09-09T04:59:15;4.45;;;2.03;;
31306;SDS011;17935;51.120;13.132;2022-09-09T05:01:41;3.30;;;1.65;;
31306;SDS011;17935;51.120;13.132;2022-09-09T05:04:07;5.80;;;2.90;;
31306;SDS011;17935;51.120;13.132;2022-09-09T05:06:33;7.15;;;1.65;;
31306;SDS011;17935;51.120;13.132;2022-09-09T05:09:01;4.15;;;2.28;;
31306;SDS011;17935;51.120;13.132;2022-09-09T05:11:28;3.55;;;1.52;;
31306;SDS011;17935;51.120;13.132;2022-09-09T05:13:54;5.05;;;1.55;;
31306;SDS011;17935;51.120;13.132;2022-09-09T05:16:21;3.85;;;1.40;;
31306;SDS011;17935;51.120;13.132;2022-09-09T05:18:48;5.95;;;1.98;;
31306;SDS011;17935;51.120;13.132;2022-09-09T05:21:15;2.78;;;1.20;;
31306;SDS011;17935;51.120;13.132;2022-09-09T05:23:42;5.95;;;1.48;;
31306;SDS011;17935;51.120;13.132;2022-09-09T05:26:15;3.28;;;1.40;;
31306;SDS011;17935;51.120;13.132;2022-09-09T05:28:41;5.10;;;1.20;;
31306;SDS011;17935;51.120;13.132;2022-09-09T05:31:07;3.88;;;1.50;;
31306;SDS011;17935;51.120;13.132;2022-09-09T05:33:34;6.15;;;1.30;;
31306;SDS011;17935;51.120;13.132;2022-09-09T05:36:02;4.78;;;1.40;;
31306;SDS011;17935;51.120;13.132;2022-09-09T05:38:29;2.97;;;1.33;;
31306;SDS011;17935;51.120;13.132;2022-09-09T05:40:55;6.13;;;1.17;;
31306;SDS011;17935;51.120;13.132;2022-09-09T05:43:22;4.45;;;1.17;;
31306;SDS011;17935;51.120;13.132;2022-09-09T05:45:48;1.98;;;0.80;;
31306;SDS011;17935;51.120;13.132;2022-09-09T05:48:14;5.50;;;1.20;;
31306;SDS011;17935;51.120;13.132;2022-09-09T05:50:41;2.05;;;0.90;;
31306;SDS011;17935;51.120;13.132;2022-09-09T05:53:07;3.13;;;1.10;;
31306;SDS011;17935;51.120;13.132;2022-09-09T05:55:33;4.35;;;0.80;;
31306;SDS011;17935;51.120;13.132;2022-09-09T05:57:59;2.30;;;0.93;;
31306;SDS011;17935;51.120;13.132;2022-09-09T06:00:26;3.00;;;0.90;;
31306;SDS011;17935;51.120;13.132;2022-09-09T06:02:52;6.03;;;1.30;;
31306;SDS011;17935;51.120;13.132;2022-09-09T06:05:18;12.48;;;1.42;;
31306;SDS011;17935;51.120;13.132;2022-09-09T06:07:44;4.60;;;1.10;;
31306;SDS011;17935;51.120;13.132;2022-09-09T06:10:11;3.95;;;1.17;;
31306;SDS011;17935;51.120;13.132;2022-09-09T06:12:40;1.00;;;0.90;;
31306;SDS011;17935;51.120;13.132;2022-09-09T06:15:06;4.78;;;1.20;;
31306;SDS011;17935;51.120;13.132;2022-09-09T06:17:33;3.03;;;1.00;;
31306;SDS011;17935;51.120;13.132;2022-09-09T06:19:59;2.63;;;1.10;;
31306;SDS011;17935;51.120;13.132;2022-09-09T06:22:25;6.95;;;1.25;;
31306;SDS011;17935;51.120;13.132;2022-09-09T06:24:51;2.80;;;1.00;;
31306;SDS011;17935;51.120;13.132;2022-09-09T06:27:18;2.95;;;0.95;;
31306;SDS011;17935;51.120;13.132;2022-09-09T06:29:44;3.30;;;1.10;;
31306;SDS011;17935;51.120;13.132;2022-09-09T06:32:10;2.08;;;1.20;;
31306;SDS011;17935;51.120;13.132;2022-09-09T06:34:36;3.70;;;1.15;;
31306;SDS011;17935;51.120;13.132;2022-09-09T06:37:02;4.50;;;1.40;;
31306;SDS011;17935;51.120;13.132;2022-09-09T06:39:28;5.70;;;1.50;;
31306;SDS011;17935;51.120;13.132;2022-09-09T06:41:55;4.40;;;1.42;;
31306;SDS011;17935;51.120;13.132;2022-09-09T06:44:23;4.32;;;1.20;;
31306;SDS011;17935;51.120;13.132;2022-09-09T06:46:51;5.80;;;1.63;;
31306;SDS011;17935;51.120;13.132;2022-09-09T06:49:17;2.22;;;1.17;;
31306;SDS011;17935;51.120;13.132;2022-09-09T06:51:43;7.32;;;1.10;;
31306;SDS011;17935;51.120;13.132;2022-09-09T06:54:09;2.25;;;1.02;;
31306;SDS011;17935;51.120;13.132;2022-09-09T06:56:36;5.03;;;1.20;;
31306;SDS011;17935;51.120;13.132;2022-09-09T06:59:05;2.35;;;0.70;;
31306;SDS011;17935;51.120;13.132;2022-09-09T07:01:34;4.05;;;1.00;;
31306;SDS011;17935;51.120;13.132;2022-09-09T07:04:00;3.63;;;0.85;;
31306;SDS011;17935;51.120;13.132;2022-09-09T07:06:28;3.78;;;1.17;;
31306;SDS011;17935;51.120;13.132;2022-09-09T07:08:56;2.97;;;0.90;;
31306;SDS011;17935;51.120;13.132;2022-09-09T07:11:23;3.45;;;1.40;;
31306;SDS011;17935;51.120;13.132;2022-09-09T07:13:49;4.22;;;1.20;;
31306;SDS011;17935;51.120;13.132;2022-09-09T07:16:16;3.17;;;1.00;;
31306;SDS011;17935;51.120;13.132;2022-09-09T07:18:42;5.05;;;0.90;;
31306;SDS011;17935;51.120;13.132;2022-09-09T07:21:09;4.13;;;1.27;;
31306;SDS011;17935;51.120;13.132;2022-09-09T07:23:35;4.53;;;1.00;;
31306;SDS011;17935;51.120;13.132;2022-09-09T07:26:02;3.42;;;0.93;;
31306;SDS011;17935;51.120;13.132;2022-09-09T07:28:28;1.92;;;0.93;;
31306;SDS011;17935;51.120;13.132;2022-09-09T07:30:56;3.08;;;1.10;;
31306;SDS011;17935;51.120;13.132;2022-09-09T07:33:23;5.20;;;1.20;;
31306;SDS011;17935;51.120;13.132;2022-09-09T07:35:49;3.22;;;0.80;;
31306;SDS011;17935;51.120;13.132;2022-09-09T07:38:15;4.13;;;1.17;;
31306;SDS011;17935;51.120;13.132;2022-09-09T07:40:41;1.30;;;0.70;;
31306;SDS011;17935;51.120;13.132;2022-09-09T07:43:08;3.17;;;1.30;;
31306;SDS011;17935;51.120;13.132;2022-09-09T07:45:34;2.20;;;1.05;;
31306;SDS011;17935;51.120;13.132;2022-09-09T07:48:01;2.88;;;1.02;;
31306;SDS011;17935;51.120;13.132;2022-09-09T07:50:27;2.90;;;0.68;;
31306;SDS011;17935;51.120;13.132;2022-09-09T07:52:53;4.93;;;1.35;;
31306;SDS011;17935;51.120;13.132;2022-09-09T07:55:20;2.72;;;1.00;;
31306;SDS011;17935;51.120;13.132;2022-09-09T07:57:46;2.67;;;1.52;;
31306;SDS011;17935;51.120;13.132;2022-09-09T08:00:12;2.05;;;0.98;;
31306;SDS011;17935;51.120;13.132;2022-09-09T08:02:40;2.83;;;1.00;;
31306;SDS011;17935;51.120;13.132;2022-09-09T08:05:06;4.57;;;0.90;;
31306;SDS011;17935;51.120;13.132;2022-09-09T08:07:32;2.55;;;1.10;;
31306;SDS011;17935;51.120;13.132;2022-09-09T08:09:59;5.30;;;0.93;;
31306;SDS011;17935;51.120;13.132;2022-09-09T08:12:25;3.13;;;1.08;;
31306;SDS011;17935;51.120;13.132;2022-09-09T08:14:51;3.53;;;1.25;;
31306;SDS011;17935;51.120;13.132;2022-09-09T08:17:17;3.75;;;0.95;;
31306;SDS011;17935;51.120;13.132;2022-09-09T08:19:43;4.60;;;1.20;;
31306;SDS011;17935;51.120;13.132;2022-09-09T08:22:09;4.25;;;0.90;;
31306;SDS011;17935;51.120;13.132;2022-09-09T08:24:35;3.72;;;1.10;;
31306;SDS011;17935;51.120;13.132;2022-09-09T08:27:01;2.60;;;0.93;;
31306;SDS011;17935;51.120;13.132;2022-09-09T08:29:27;6.75;;;1.52;;
31306;SDS011;17935;51.120;13.132;2022-09-09T08:31:54;6.63;;;1.45;;
31306;SDS011;17935;51.120;13.132;2022-09-09T08:34:22;9.55;;;2.55;;
31306;SDS011;17935;51.120;13.132;2022-09-09T08:36:48;4.43;;;1.20;;
31306;SDS011;17935;51.120;13.132;2022-09-09T08:39:16;4.88;;;1.45;;
31306;SDS011;17935;51.120;13.132;2022-09-09T08:51:39;6.25;;;1.63;;
31306;SDS011;17935;51.120;13.132;2022-09-09T08:54:06;9.60;;;2.15;;
31306;SDS011;17935;51.120;13.132;2022-09-09T08:56:33;7.55;;;2.53;;
31306;SDS011;17935;51.120;13.132;2022-09-09T08:59:00;11.55;;;1.85;;
31306;SDS011;17935;51.120;13.132;2022-09-09T09:04:21;6.50;;;2.05;;
31306;SDS011;17935;51.120;13.132;2022-09-09T09:07:05;11.82;;;2.22;;
31306;SDS011;17935;51.120;13.132;2022-09-09T09:12:06;2.70;;;1.45;;
31306;SDS011;17935;51.120;13.132;2022-09-09T09:14:34;1.90;;;1.52;;
31306;SDS011;17935;51.120;13.132;2022-09-09T09:17:02;8.75;;;1.52;;
31306;SDS011;17935;51.120;13.132;2022-09-09T09:19:29;3.92;;;1.70;;
31306;SDS011;17935;51.120;13.132;2022-09-09T09:24:39;4.85;;;1.20;;
31306;SDS011;17935;51.120;13.132;2022-09-09T09:27:11;4.50;;;1.27;;
31306;SDS011;17935;51.120;13.132;2022-09-09T09:29:38;2.22;;;0.90;;
31306;SDS011;17935;51.120;13.132;2022-09-09T09:32:05;1.90;;;0.80;;
31306;SDS011;17935;51.120;13.132;2022-09-09T09:34:33;1.58;;;0.68;;
31306;SDS011;17935;51.120;13.132;2022-09-09T09:36:59;4.97;;;1.08;;
31306;SDS011;17935;51.120;13.132;2022-09-09T09:39:33;3.22;;;1.05;;
31306;SDS011;17935;51.120;13.132;2022-09-09T09:42:09;6.15;;;0.85;;
31306;SDS011;17935;51.120;13.132;2022-09-09T09:44:36;2.88;;;1.10;;
31306;SDS011;17935;51.120;13.132;2022-09-09T09:47:10;2.22;;;1.00;;
31306;SDS011;17935;51.120;13.132;2022-09-09T09:49:37;4.57;;;1.17;;
31306;SDS011;17935;51.120;13.132;2022-09-09T09:52:03;1.63;;;0.68;;
31306;SDS011;17935;51.120;13.132;2022-09-09T09:54:30;2.33;;;0.98;;
31306;SDS011;17935;51.120;13.132;2022-09-09T09:57:08;2.67;;;1.00;;
31306;SDS011;17935;51.120;13.132;2022-09-09T09:59:35;4.22;;;1.02;;
31306;SDS011;17935;51.120;13.132;2022-09-09T10:02:15;2.90;;;1.27;;
31306;SDS011;17935;51.120;13.132;2022-09-09T10:04:41;6.28;;;0.98;;
31306;SDS011;17935;51.120;13.132;2022-09-09T10:07:11;2.95;;;1.02;;
31306;SDS011;17935;51.120;13.132;2022-09-09T10:09:38;2.42;;;0.88;;
31306;SDS011;17935;51.120;13.132;2022-09-09T10:12:14;2.75;;;1.23;;
31306;SDS011;17935;51.120;13.132;2022-09-09T10:14:57;2.20;;;0.90;;
31306;SDS011;17935;51.120;13.132;2022-09-09T10:17:40;6.68;;;1.38;;
31306;SDS011;17935;51.120;13.132;2022-09-09T10:22:36;2.35;;;1.15;;
31306;SDS011;17935;51.120;13.132;2022-09-09T10:30:17;4.47;;;1.05;;
31306;SDS011;17935;51.120;13.132;2022-09-09T10:40:34;2.70;;;1.17;;
31306;SDS011;17935;51.120;13.132;2022-09-09T10:45:49;3.17;;;1.20;;
31306;SDS011;17935;51.120;13.132;2022-09-09T10:56:31;4.35;;;1.63;;
31306;SDS011;17935;51.120;13.132;2022-09-09T10:59:07;2.85;;;1.45;;
31306;SDS011;17935;51.120;13.132;2022-09-09T11:01:38;7.72;;;1.70;;
31306;SDS011;17935;51.120;13.132;2022-09-09T11:04:09;4.05;;;1.40;;
31306;SDS011;17935;51.120;13.132;2022-09-09T11:06:37;1.80;;;1.05;;
31306;SDS011;17935;51.120;13.132;2022-09-09T11:09:05;3.17;;;1.25;;
31306;SDS011;17935;51.120;13.132;2022-09-09T11:11:34;4.15;;;1.33;;
31306;SDS011;17935;51.120;13.132;2022-09-09T11:16:29;6.22;;;1.40;;
31306;SDS011;17935;51.120;13.132;2022-09-09T11:21:43;3.65;;;1.38;;
31306;SDS011;17935;51.120;13.132;2022-09-09T11:24:10;6.28;;;1.23;;
31306;SDS011;17935;51.120;13.132;2022-09-09T11:26:43;3.40;;;1.38;;
31306;SDS011;17935;51.120;13.132;2022-09-09T11:31:46;4.57;;;1.55;;
31306;SDS011;17935;51.120;13.132;2022-09-09T11:34:19;3.00;;;1.10;;
31306;SDS011;17935;51.120;13.132;2022-09-09T11:39:36;16.92;;;4.00;;
31306;SDS011;17935;51.120;13.132;2022-09-09T11:42:07;3.67;;;1.10;;
31306;SDS011;17935;51.120;13.132;2022-09-09T11:44:41;4.65;;;1.05;;
31306;SDS011;17935;51.120;13.132;2022-09-09T11:47:19;2.95;;;1.30;;
31306;SDS011;17935;51.120;13.132;2022-09-09T11:49:46;2.83;;;1.10;;
31306;SDS011;17935;51.120;13.132;2022-09-09T11:52:24;5.40;;;1.42;;
31306;SDS011;17935;51.120;13.132;2022-09-09T11:54:51;3.33;;;1.52;;
31306;SDS011;17935;51.120;13.132;2022-09-09T11:59:53;6.18;;;1.73;;
31306;SDS011;17935;51.120;13.132;2022-09-09T12:02:23;5.18;;;1.38;;
31306;SDS011;17935;51.120;13.132;2022-09-09T12:04:58;1.35;;;1.02;;
31306;SDS011;17935;51.120;13.132;2022-09-09T12:09:55;4.72;;;1.02;;
31306;SDS011;17935;51.120;13.132;2022-09-09T12:12:31;7.25;;;1.45;;
31306;SDS011;17935;51.120;13.132;2022-09-09T12:15:02;5.03;;;1.65;;
31306;SDS011;17935;51.120;13.132;2022-09-09T12:17:30;3.65;;;1.15;;
31306;SDS011;17935;51.120;13.132;2022-09-09T12:20:16;4.97;;;1.20;;
31306;SDS011;17935;51.120;13.132;2022-09-09T12:28:23;1.20;;;0.82;;
31306;SDS011;17935;51.120;13.132;2022-09-09T12:31:09;5.05;;;1.42;;
31306;SDS011;17935;51.120;13.132;2022-09-09T12:33:39;2.92;;;0.90;;
31306;SDS011;17935;51.120;13.132;2022-09-09T12:36:12;7.07;;;1.23;;
31306;SDS011;17935;51.120;13.132;2022-09-09T12:38:40;4.70;;;1.45;;
31306;SDS011;17935;51.120;13.132;2022-09-09T12:41:06;6.22;;;1.10;;
31306;SDS011;17935;51.120;13.132;2022-09-09T12:43:44;5.57;;;1.05;;
31306;SDS011;17935;51.120;13.132;2022-09-09T12:46:13;7.32;;;1.95;;
31306;SDS011;17935;51.120;13.132;2022-09-09T12:48:42;3.55;;;1.15;;
31306;SDS011;17935;51.120;13.132;2022-09-09T12:51:27;5.82;;;0.82;;
31306;SDS011;17935;51.120;13.132;2022-09-09T12:53:54;2.58;;;0.90;;
31306;SDS011;17935;51.120;13.132;2022-09-09T12:56:20;3.00;;;0.82;;
31306;SDS011;17935;51.120;13.132;2022-09-09T12:58:48;3.67;;;1.20;;
31306;SDS011;17935;51.120;13.132;2022-09-09T13:01:20;1.80;;;0.80;;
31306;SDS011;17935;51.120;13.132;2022-09-09T13:03:47;4.35;;;1.02;;
31306;SDS011;17935;51.120;13.132;2022-09-09T13:06:17;2.13;;;0.90;;
31306;SDS011;17935;51.120;13.132;2022-09-09T13:08:44;3.95;;;0.90;;
31306;SDS011;17935;51.120;13.132;2022-09-09T13:11:11;4.38;;;1.33;;
31306;SDS011;17935;51.120;13.132;2022-09-09T13:13:39;5.55;;;1.10;;
31306;SDS011;17935;51.120;13.132;2022-09-09T13:16:06;3.25;;;0.88;;
31306;SDS011;17935;51.120;13.132;2022-09-09T13:18:35;3.72;;;1.20;;
31306;SDS011;17935;51.120;13.132;2022-09-09T13:21:03;1.65;;;0.73;;
31306;SDS011;17935;51.120;13.132;2022-09-09T13:23:30;5.15;;;1.00;;
31306;SDS011;17935;51.120;13.132;2022-09-09T13:25:58;2.03;;;0.90;;
31306;SDS011;17935;51.120;13.132;2022-09-09T13:28:25;2.90;;;1.13;;
31306;SDS011;17935;51.120;13.132;2022-09-09T13:33:33;4.03;;;1.08;;
31306;SDS011;17935;51.120;13.132;2022-09-09T13:36:00;4.10;;;0.98;;
31306;SDS011;17935;51.120;13.132;2022-09-09T13:38:28;2.58;;;1.08;;
31306;SDS011;17935;51.120;13.132;2022-09-09T13:40:56;4.45;;;1.10;;
31306;SDS011;17935;51.120;13.132;2022-09-09T13:43:22;3.65;;;0.70;;
31306;SDS011;17935;51.120;13.132;2022-09-09T13:46:00;5.15;;;1.20;;
31306;SDS011;17935;51.120;13.132;2022-09-09T13:48:26;3.40;;;1.02;;
31306;SDS011;17935;51.120;13.132;2022-09-09T13:50:56;0.65;;;0.57;;
31306;SDS011;17935;51.120;13.132;2022-09-09T13:53:22;3.63;;;1.10;;
31306;SDS011;17935;51.120;13.132;2022-09-09T13:55:48;2.05;;;0.90;;
31306;SDS011;17935;51.120;13.132;2022-09-09T13:58:16;1.60;;;0.75;;
31306;SDS011;17935;51.120;13.132;2022-09-09T14:00:44;5.95;;;1.13;;
31306;SDS011;17935;51.120;13.132;2022-09-09T14:03:10;4.55;;;1.02;;
31306;SDS011;17935;51.120;13.132;2022-09-09T14:05:36;5.50;;;1.80;;
31306;SDS011;17935;51.120;13.132;2022-09-09T14:08:06;3.33;;;1.10;;
31306;SDS011;17935;51.120;13.132;2022-09-09T14:10:32;4.57;;;1.35;;
31306;SDS011;17935;51.120;13.132;2022-09-09T14:13:02;3.28;;;0.98;;
31306;SDS011;17935;51.120;13.132;2022-09-09T14:15:28;2.53;;;0.80;;
31306;SDS011;17935;51.120;13.132;2022-09-09T14:17:54;4.18;;;0.90;;
31306;SDS011;17935;51.120;13.132;2022-09-09T14:20:21;3.88;;;0.77;;
31306;SDS011;17935;51.120;13.132;2022-09-09T14:22:47;2.17;;;1.00;;
31306;SDS011;17935;51.120;13.132;2022-09-09T14:25:13;3.72;;;1.13;;
31306;SDS011;17935;51.120;13.132;2022-09-09T14:27:39;1.73;;;0.80;;
31306;SDS011;17935;51.120;13.132;2022-09-09T14:30:06;6.35;;;1.23;;
31306;SDS011;17935;51.120;13.132;2022-09-09T14:32:32;3.22;;;1.08;;
31306;SDS011;17935;51.120;13.132;2022-09-09T14:34:58;2.63;;;0.98;;
31306;SDS011;17935;51.120;13.132;2022-09-09T14:37:24;3.95;;;0.98;;
31306;SDS011;17935;51.120;13.132;2022-09-09T14:39:51;2.85;;;0.82;;
31306;SDS011;17935;51.120;13.132;2022-09-09T14:42:17;4.43;;;0.90;;
31306;SDS011;17935;51.120;13.132;2022-09-09T14:44:43;3.08;;;1.40;;
31306;SDS011;17935;51.120;13.132;2022-09-09T14:47:09;5.03;;;1.20;;
31306;SDS011;17935;51.120;13.132;2022-09-09T14:49:35;3.75;;;1.15;;
31306;SDS011;17935;51.120;13.132;2022-09-09T14:52:02;5.57;;;1.17;;
31306;SDS011;17935;51.120;13.132;2022-09-09T14:54:28;3.83;;;0.93;;
31306;SDS011;17935;51.120;13.132;2022-09-09T14:56:54;4.63;;;1.00;;
31306;SDS011;17935;51.120;13.132;2022-09-09T14:59:21;4.60;;;1.15;;
31306;SDS011;17935;51.120;13.132;2022-09-09T15:01:47;3.80;;;1.45;;
31306;SDS011;17935;51.120;13.132;2022-09-09T15:04:13;6.65;;;2.22;;
31306;SDS011;17935;51.120;13.132;2022-09-09T15:06:39;7.70;;;1.27;;
31306;SDS011;17935;51.120;13.132;2022-09-09T15:09:07;5.90;;;1.48;;
31306;SDS011;17935;51.120;13.132;2022-09-09T15:11:34;4.95;;;1.27;;
31306;SDS011;17935;51.120;13.132;2022-09-09T15:14:02;1.52;;;0.60;;
31306;SDS011;17935;51.120;13.132;2022-09-09T15:16:29;6.50;;;1.65;;
31306;SDS011;17935;51.120;13.132;2022-09-09T15:18:55;2.65;;;1.00;;
31306;SDS011;17935;51.120;13.132;2022-09-09T15:21:23;5.47;;;1.05;;
31306;SDS011;17935;51.120;13.132;2022-09-09T15:23:49;2.90;;;1.20;;
31306;SDS011;17935;51.120;13.132;2022-09-09T15:26:16;3.38;;;1.02;;
31306;SDS011;17935;51.120;13.132;2022-09-09T15:28:42;2.13;;;1.00;;
31306;SDS011;17935;51.120;13.132;2022-09-09T15:31:13;2.25;;;0.80;;
31306;SDS011;17935;51.120;13.132;2022-09-09T15:33:40;3.70;;;0.90;;
31306;SDS011;17935;51.120;13.132;2022-09-09T15:36:22;2.08;;;0.90;;
31306;SDS011;17935;51.120;13.132;2022-09-09T15:38:49;4.18;;;0.90;;
31306;SDS011;17935;51.120;13.132;2022-09-09T15:41:15;4.00;;;1.05;;
31306;SDS011;17935;51.120;13.132;2022-09-09T15:43:49;3.50;;;0.90;;
31306;SDS011;17935;51.120;13.132;2022-09-09T15:46:26;3.97;;;0.95;;
31306;SDS011;17935;51.120;13.132;2022-09-09T15:48:53;5.88;;;1.33;;
31306;SDS011;17935;51.120;13.132;2022-09-09T15:51:20;4.68;;;1.00;;
31306;SDS011;17935;51.120;13.132;2022-09-09T15:53:46;4.30;;;1.20;;
31306;SDS011;17935;51.120;13.132;2022-09-09T15:56:13;4.13;;;1.20;;
31306;SDS011;17935;51.120;13.132;2022-09-09T15:58:39;2.15;;;0.93;;
31306;SDS011;17935;51.120;13.132;2022-09-09T16:01:06;5.35;;;1.35;;
31306;SDS011;17935;51.120;13.132;2022-09-09T16:03:35;2.42;;;1.05;;
31306;SDS011;17935;51.120;13.132;2022-09-09T16:06:02;1.70;;;0.90;;
31306;SDS011;17935;51.120;13.132;2022-09-09T16:08:36;2.33;;;1.08;;
31306;SDS011;17935;51.120;13.132;2022-09-09T16:13:35;1.77;;;0.90;;
31306;SDS011;17935;51.120;13.132;2022-09-09T16:16:01;3.13;;;1.13;;
31306;SDS011;17935;51.120;13.132;2022-09-09T16:18:32;2.00;;;0.93;;
31306;SDS011;17935;51.120;13.132;2022-09-09T16:20:58;1.98;;;1.15;;
31306;SDS011;17935;51.120;13.132;2022-09-09T16:23:25;3.72;;;1.10;;
31306;SDS011;17935;51.120;13.132;2022-09-09T16:25:54;2.88;;;1.00;;
31306;SDS011;17935;51.120;13.132;2022-09-09T16:28:20;2.03;;;1.30;;
31306;SDS011;17935;51.120;13.132;2022-09-09T16:30:46;4.25;;;1.25;;
31306;SDS011;17935;51.120;13.132;2022-09-09T16:33:12;4.63;;;1.35;;
31306;SDS011;17935;51.120;13.132;2022-09-09T16:35:41;7.72;;;2.55;;
31306;SDS011;17935;51.120;13.132;2022-09-09T16:38:08;2.28;;;0.90;;
31306;SDS011;17935;51.120;13.132;2022-09-09T16:40:34;5.20;;;1.42;;
31306;SDS011;17935;51.120;13.132;2022-09-09T16:43:01;2.35;;;0.93;;
31306;SDS011;17935;51.120;13.132;2022-09-09T16:45:27;2.78;;;1.33;;
31306;SDS011;17935;51.120;13.132;2022-09-09T16:47:54;1.95;;;1.05;;